SWA1999 KTPA-KMCO
Flight info
| Callsign | SWA1999 |
|---|---|
| Flight time | 0h 23m |
| Altitude | 13000 |
| Route | LAL MINEE MINEE6 |
| Aircraft | B738/M-SDE2E3FGHIRWXY/LB1 |
Departure
| Time | 2026-04-23 01:09 |
|---|---|
| Airport | Tampa International Airport (KTPA) |
Arrival
| Time | 2026-04-23 01:32 |
|---|---|
| Airport | Orlando International Airport (KMCO) |
| Time | Latitude | Longitude | Altitude | Speed | Heading |
|---|---|---|---|---|---|
| 2026-04-23 00:19 | 27.97531 | -82.53169 | 40 ft | 0 kts | 301° |
| 2026-04-23 00:59 | 27.97524 | -82.53155 | 39 ft | 4 kts | 296° |
| 2026-04-23 00:59 | 27.97514 | -82.53127 | 39 ft | 4 kts | 281° |
| 2026-04-23 01:00 | 27.97512 | -82.53097 | 40 ft | 4 kts | 257° |
| 2026-04-23 01:00 | 27.97523 | -82.53073 | 38 ft | 4 kts | 207° |
| 2026-04-23 01:00 | 27.97532 | -82.53069 | 36 ft | 0 kts | 182° |
| 2026-04-23 01:05 | 27.97530 | -82.53062 | 37 ft | 2 kts | 106° |
| 2026-04-23 01:05 | 27.97538 | -82.53015 | 40 ft | 10 kts | 62° |
| 2026-04-23 01:05 | 27.97616 | -82.52983 | 41 ft | 15 kts | 3° |
| 2026-04-23 01:05 | 27.97750 | -82.52976 | 40 ft | 24 kts | 2° |
| 2026-04-23 01:06 | 27.97928 | -82.52973 | 37 ft | 26 kts | 1° |
| 2026-04-23 01:06 | 27.98099 | -82.52967 | 37 ft | 24 kts | 2° |
| 2026-04-23 01:06 | 27.98260 | -82.52961 | 32 ft | 23 kts | 1° |
| 2026-04-23 01:06 | 27.98420 | -82.52955 | 31 ft | 23 kts | 1° |
| 2026-04-23 01:07 | 27.98553 | -82.52951 | 32 ft | 10 kts | 1° |
| 2026-04-23 01:07 | 27.98628 | -82.52949 | 30 ft | 12 kts | 1° |
| 2026-04-23 01:07 | 27.98684 | -82.52932 | 29 ft | 5 kts | 31° |
| 2026-04-23 01:07 | 27.98700 | -82.52912 | 29 ft | 5 kts | 61° |
| 2026-04-23 01:08 | 27.98698 | -82.52841 | 31 ft | 11 kts | 123° |
| 2026-04-23 01:08 | 27.98624 | -82.52825 | 32 ft | 15 kts | 181° |
| 2026-04-23 01:08 | 27.98479 | -82.52831 | 33 ft | 30 kts | 182° |
| 2026-04-23 01:08 | 27.97928 | -82.52848 | 36 ft | 128 kts | 181° |
| 2026-04-23 01:09 | 27.96808 | -82.52893 | 468 ft | 175 kts | 178° |
| 2026-04-23 01:09 | 27.95579 | -82.52935 | 1721 ft | 182 kts | 176° |
| 2026-04-23 01:09 | 27.94343 | -82.52961 | 3034 ft | 175 kts | 171° |
| 2026-04-23 01:09 | 27.93231 | -82.52549 | 4139 ft | 166 kts | 140° |
| 2026-04-23 01:10 | 27.92608 | -82.51476 | 5067 ft | 171 kts | 102° |
| 2026-04-23 01:10 | 27.92633 | -82.50026 | 5597 ft | 202 kts | 85° |
| 2026-04-23 01:10 | 27.92815 | -82.48295 | 5828 ft | 234 kts | 84° |
| 2026-04-23 01:10 | 27.93017 | -82.46413 | 6245 ft | 256 kts | 84° |
| 2026-04-23 01:11 | 27.93244 | -82.44329 | 6806 ft | 274 kts | 83° |
| 2026-04-23 01:11 | 27.93510 | -82.42132 | 7719 ft | 283 kts | 82° |
| 2026-04-23 01:11 | 27.93791 | -82.39929 | 8669 ft | 290 kts | 81° |
| 2026-04-23 01:11 | 27.94083 | -82.37656 | 9699 ft | 294 kts | 81° |
| 2026-04-23 01:12 | 27.94382 | -82.35313 | 10485 ft | 309 kts | 81° |
| 2026-04-23 01:12 | 27.94701 | -82.32806 | 10797 ft | 338 kts | 81° |
| 2026-04-23 01:12 | 27.95047 | -82.30063 | 11013 ft | 366 kts | 81° |
| 2026-04-23 01:12 | 27.95416 | -82.27124 | 11431 ft | 384 kts | 81° |
| 2026-04-23 01:13 | 27.95793 | -82.24099 | 12166 ft | 392 kts | 81° |
| 2026-04-23 01:13 | 27.96179 | -82.20999 | 12739 ft | 391 kts | 81° |
| 2026-04-23 01:13 | 27.96553 | -82.17980 | 12996 ft | 400 kts | 81° |
| 2026-04-23 01:13 | 27.96950 | -82.14783 | 12982 ft | 419 kts | 81° |
| 2026-04-23 01:14 | 27.97359 | -82.11480 | 12982 ft | 426 kts | 81° |
| 2026-04-23 01:14 | 27.97768 | -82.08165 | 12958 ft | 423 kts | 81° |
| 2026-04-23 01:14 | 27.98179 | -82.04836 | 12956 ft | 421 kts | 81° |
| 2026-04-23 01:14 | 27.98782 | -82.01641 | 12957 ft | 419 kts | 71° |
| 2026-04-23 01:15 | 27.99883 | -81.98552 | 12961 ft | 418 kts | 61° |
| 2026-04-23 01:15 | 28.01301 | -81.95689 | 12970 ft | 418 kts | 58° |
| 2026-04-23 01:15 | 28.02745 | -81.92831 | 12968 ft | 419 kts | 58° |
| 2026-04-23 01:15 | 28.04185 | -81.89958 | 12961 ft | 420 kts | 59° |
| 2026-04-23 01:16 | 28.05613 | -81.87074 | 12978 ft | 420 kts | 59° |
| 2026-04-23 01:16 | 28.07013 | -81.84221 | 12978 ft | 420 kts | 59° |
| 2026-04-23 01:16 | 28.08448 | -81.81284 | 12983 ft | 420 kts | 59° |
| 2026-04-23 01:16 | 28.09859 | -81.78388 | 12982 ft | 420 kts | 59° |
| 2026-04-23 01:17 | 28.11274 | -81.75485 | 12978 ft | 420 kts | 59° |
| 2026-04-23 01:17 | 28.12684 | -81.72595 | 12983 ft | 420 kts | 59° |
| 2026-04-23 01:17 | 28.14102 | -81.69702 | 12978 ft | 419 kts | 59° |
| 2026-04-23 01:17 | 28.15514 | -81.66826 | 12971 ft | 418 kts | 59° |
| 2026-04-23 01:18 | 28.17010 | -81.64008 | 12962 ft | 416 kts | 51° |
| 2026-04-23 01:18 | 28.19131 | -81.61845 | 12984 ft | 410 kts | 31° |
| 2026-04-23 01:18 | 28.21615 | -81.60270 | 12736 ft | 406 kts | 25° |
| 2026-04-23 01:18 | 28.24089 | -81.58883 | 12510 ft | 389 kts | 24° |
| 2026-04-23 01:19 | 28.26491 | -81.57581 | 12254 ft | 376 kts | 24° |
| 2026-04-23 01:19 | 28.28814 | -81.56333 | 12007 ft | 365 kts | 24° |
| 2026-04-23 01:19 | 28.31098 | -81.55114 | 11767 ft | 360 kts | 23° |
| 2026-04-23 01:19 | 28.33340 | -81.53924 | 11516 ft | 351 kts | 24° |
| 2026-04-23 01:20 | 28.35515 | -81.52773 | 11265 ft | 340 kts | 24° |
| 2026-04-23 01:20 | 28.37635 | -81.51658 | 11021 ft | 331 kts | 23° |
| 2026-04-23 01:20 | 28.39699 | -81.50575 | 10776 ft | 323 kts | 22° |
| 2026-04-23 01:20 | 28.41718 | -81.49521 | 10533 ft | 315 kts | 23° |
| 2026-04-23 01:21 | 28.43689 | -81.48494 | 10283 ft | 308 kts | 23° |
| 2026-04-23 01:21 | 28.45622 | -81.47498 | 10062 ft | 302 kts | 22° |
| 2026-04-23 01:21 | 28.47523 | -81.46525 | 9785 ft | 297 kts | 23° |
| 2026-04-23 01:21 | 28.49390 | -81.45576 | 9519 ft | 292 kts | 23° |
| 2026-04-23 01:22 | 28.51234 | -81.44641 | 9264 ft | 289 kts | 23° |
| 2026-04-23 01:22 | 28.53133 | -81.44003 | 8984 ft | 285 kts | 1° |
| 2026-04-23 01:22 | 28.55094 | -81.44176 | 8713 ft | 282 kts | 353° |
| 2026-04-23 01:22 | 28.57056 | -81.44430 | 8328 ft | 285 kts | 353° |
| 2026-04-23 01:23 | 28.59029 | -81.44692 | 7972 ft | 286 kts | 353° |
| 2026-04-23 01:23 | 28.60988 | -81.44958 | 7723 ft | 281 kts | 353° |
| 2026-04-23 01:23 | 28.62940 | -81.45229 | 7465 ft | 277 kts | 353° |
| 2026-04-23 01:23 | 28.64824 | -81.45497 | 7240 ft | 276 kts | 353° |
| 2026-04-23 01:24 | 28.66751 | -81.45777 | 6990 ft | 275 kts | 353° |
| 2026-04-23 01:24 | 28.68622 | -81.46053 | 6750 ft | 274 kts | 353° |
| 2026-04-23 01:24 | 28.70533 | -81.46333 | 6507 ft | 273 kts | 353° |
| 2026-04-23 01:24 | 28.72410 | -81.46321 | 6221 ft | 272 kts | 16° |
| 2026-04-23 01:25 | 28.73983 | -81.45202 | 5972 ft | 269 kts | 50° |
| 2026-04-23 01:25 | 28.74728 | -81.43291 | 5715 ft | 268 kts | 84° |
| 2026-04-23 01:25 | 28.74436 | -81.41226 | 5496 ft | 266 kts | 111° |
| 2026-04-23 01:25 | 28.73728 | -81.39325 | 5263 ft | 262 kts | 112° |
| 2026-04-23 01:26 | 28.73004 | -81.37409 | 5042 ft | 256 kts | 113° |
| 2026-04-23 01:26 | 28.72313 | -81.35582 | 4996 ft | 245 kts | 113° |
| 2026-04-23 01:26 | 28.71395 | -81.33994 | 4975 ft | 241 kts | 140° |
| 2026-04-23 01:26 | 28.69850 | -81.33275 | 4883 ft | 246 kts | 169° |
| 2026-04-23 01:27 | 28.68136 | -81.33032 | 4582 ft | 250 kts | 173° |
| 2026-04-23 01:27 | 28.66411 | -81.32931 | 4248 ft | 245 kts | 176° |
| 2026-04-23 01:27 | 28.64736 | -81.32905 | 3943 ft | 237 kts | 177° |
| 2026-04-23 01:27 | 28.63122 | -81.32894 | 3640 ft | 227 kts | 176° |
| 2026-04-23 01:28 | 28.61573 | -81.32880 | 3340 ft | 218 kts | 176° |
| 2026-04-23 01:28 | 28.60085 | -81.32865 | 3049 ft | 208 kts | 176° |
| 2026-04-23 01:28 | 28.58689 | -81.32850 | 2782 ft | 193 kts | 175° |
| 2026-04-23 01:28 | 28.57391 | -81.32836 | 2536 ft | 184 kts | 175° |
| 2026-04-23 01:29 | 28.56085 | -81.32819 | 2306 ft | 190 kts | 175° |
| 2026-04-23 01:29 | 28.54758 | -81.32805 | 2044 ft | 190 kts | 174° |
| 2026-04-23 01:29 | 28.53438 | -81.32791 | 1780 ft | 189 kts | 174° |
| 2026-04-23 01:29 | 28.52122 | -81.32776 | 1541 ft | 188 kts | 175° |
| 2026-04-23 01:30 | 28.50852 | -81.32764 | 1288 ft | 176 kts | 175° |
| 2026-04-23 01:30 | 28.49699 | -81.32753 | 1069 ft | 158 kts | 173° |
| 2026-04-23 01:30 | 28.48612 | -81.32739 | 872 ft | 157 kts | 175° |
| 2026-04-23 01:30 | 28.47509 | -81.32727 | 666 ft | 159 kts | 175° |
| 2026-04-23 01:31 | 28.46426 | -81.32715 | 477 ft | 154 kts | 175° |
| 2026-04-23 01:31 | 28.45351 | -81.32704 | 276 ft | 155 kts | 176° |
| 2026-04-23 01:31 | 28.44282 | -81.32698 | 114 ft | 145 kts | 174° |
| 2026-04-23 01:31 | 28.43372 | -81.32680 | 109 ft | 112 kts | 179° |
| 2026-04-23 01:32 | 28.42738 | -81.32673 | 103 ft | 70 kts | 179° |
| 2026-04-23 01:32 | 28.42343 | -81.32671 | 102 ft | 53 kts | 178° |
| 2026-04-23 01:32 | 28.41989 | -81.32663 | 106 ft | 48 kts | 179° |
| 2026-04-23 01:32 | 28.41686 | -81.32657 | 107 ft | 20 kts | 180° |
| 2026-04-23 01:33 | 28.41590 | -81.32640 | 108 ft | 14 kts | 158° |
| 2026-04-23 01:33 | 28.41538 | -81.32561 | 106 ft | 14 kts | 91° |
| 2026-04-23 01:33 | 28.41540 | -81.32439 | 101 ft | 15 kts | 89° |
| 2026-04-23 01:33 | 28.41540 | -81.32367 | 100 ft | 9 kts | 90° |
| 2026-04-23 01:34 | 28.41540 | -81.32317 | 100 ft | 2 kts | 88° |
| 2026-04-23 01:34 | 28.41540 | -81.32307 | 100 ft | 0 kts | 89° |
| 2026-04-23 01:34 | 28.41540 | -81.32306 | 100 ft | 0 kts | 89° |
| 2026-04-23 01:35 | 28.41540 | -81.32305 | 100 ft | 0 kts | 89° |
| 2026-04-23 01:35 | 28.41540 | -81.32304 | 100 ft | 0 kts | 89° |
| 2026-04-23 01:36 | 28.41541 | -81.32277 | 100 ft | 13 kts | 89° |
| 2026-04-23 01:36 | 28.41543 | -81.32118 | 100 ft | 18 kts | 89° |
| 2026-04-23 01:37 | 28.41544 | -81.32040 | 99 ft | 0 kts | 90° |
| 2026-04-23 01:37 | 28.41544 | -81.32038 | 99 ft | 0 kts | 90° |
| 2026-04-23 01:37 | 28.41546 | -81.31966 | 98 ft | 21 kts | 90° |
| 2026-04-23 01:38 | 28.41590 | -81.31874 | 98 ft | 22 kts | 18° |
| 2026-04-23 01:38 | 28.41741 | -81.31872 | 101 ft | 23 kts | 359° |
| 2026-04-23 01:38 | 28.41812 | -81.31873 | 102 ft | 0 kts | 359° |
| 2026-04-23 01:38 | 28.41815 | -81.31873 | 102 ft | 3 kts | 359° |
| 2026-04-23 01:39 | 28.41898 | -81.31875 | 102 ft | 21 kts | 359° |
| 2026-04-23 01:39 | 28.42084 | -81.31875 | 104 ft | 29 kts | 2° |
| 2026-04-23 01:39 | 28.42243 | -81.31838 | 107 ft | 18 kts | 8° |
| 2026-04-23 01:39 | 28.42342 | -81.31804 | 106 ft | 14 kts | 65° |
| 2026-04-23 01:40 | 28.42349 | -81.31669 | 103 ft | 23 kts | 89° |
| 2026-04-23 01:40 | 28.42350 | -81.31463 | 100 ft | 26 kts | 89° |
| 2026-04-23 01:40 | 28.42348 | -81.31262 | 99 ft | 25 kts | 94° |
| 2026-04-23 01:40 | 28.42324 | -81.31074 | 99 ft | 25 kts | 100° |
| 2026-04-23 01:41 | 28.42324 | -81.30843 | 99 ft | 29 kts | 84° |
| 2026-04-23 01:41 | 28.42340 | -81.30620 | 105 ft | 27 kts | 87° |
| 2026-04-23 01:41 | 28.42354 | -81.30398 | 100 ft | 29 kts | 85° |
| 2026-04-23 01:41 | 28.42360 | -81.30183 | 102 ft | 26 kts | 89° |
| 2026-04-23 01:42 | 28.42362 | -81.29982 | 103 ft | 21 kts | 90° |
| 2026-04-23 01:42 | 28.42365 | -81.29854 | 102 ft | 15 kts | 79° |
| 2026-04-23 01:42 | 28.42447 | -81.29794 | 102 ft | 16 kts | 1° |
| 2026-04-23 01:42 | 28.42601 | -81.29795 | 102 ft | 27 kts | 359° |
| 2026-04-23 01:43 | 28.42795 | -81.29797 | 102 ft | 28 kts | 359° |
| 2026-04-23 01:43 | 28.42980 | -81.29799 | 102 ft | 26 kts | 359° |
| 2026-04-23 01:43 | 28.43153 | -81.29800 | 103 ft | 24 kts | 0° |
| 2026-04-23 01:43 | 28.43297 | -81.29803 | 102 ft | 13 kts | 354° |
| 2026-04-23 01:44 | 28.43359 | -81.29874 | 100 ft | 14 kts | 323° |
| 2026-04-23 01:44 | 28.43467 | -81.29886 | 100 ft | 15 kts | 360° |
| 2026-04-23 01:44 | 28.43520 | -81.29948 | 100 ft | 12 kts | 278° |
| 2026-04-23 01:44 | 28.43514 | -81.30015 | 100 ft | 4 kts | 258° |
| 2026-04-23 01:45 | 28.43511 | -81.30034 | 100 ft | 0 kts | 261° |